Time;durP1;ratioP1;P1;durP2;ratioP2;P2;SDS_P1;SDS_P2;PMS_P1;PMS_P2;Temp;Humidity;BMP_temperature;BMP_pressure;BME280_temperature;BME280_humidity;BME280_pressure;Samples;Min_cycle;Max_cycle;Signal;HPM_P1;HPM_P2
2022/11/17 00:01:06;;;;;;;6.20;1.35;;;;;;;;;;4977487;28;20461;-62
2022/11/17 00:03:32;;;;;;;13.43;2.08;;;;;;;;;;4986592;28;20050;-62
2022/11/17 00:06:02;;;;;;;9.18;1.52;;;;;;;;;;4975021;28;20030;-63
2022/11/17 00:08:28;;;;;;;12.57;1.52;;;;;;;;;;4981268;28;20130;-63
2022/11/17 00:10:58;;;;;;;8.15;1.38;;;;;;;;;;4984352;28;20027;-62
2022/11/17 00:16:11;;;;;;;11.20;1.48;;;;;;;;;;4978633;28;20042;-62
2022/11/17 00:21:25;;;;;;;8.35;1.60;;;;;;;;;;4982122;28;20029;-62
2022/11/17 00:23:52;;;;;;;19.10;3.08;;;;;;;;;;4979066;28;20439;-63
2022/11/17 00:26:19;;;;;;;5.18;1.10;;;;;;;;;;4977696;28;20391;-62
2022/11/17 00:28:45;;;;;;;8.18;1.17;;;;;;;;;;4979720;28;20114;-62
2022/11/17 00:34:03;;;;;;;5.65;1.10;;;;;;;;;;4974486;28;20053;-62
2022/11/17 00:36:30;;;;;;;5.95;0.90;;;;;;;;;;4981951;28;20034;-63
2022/11/17 00:38:56;;;;;;;4.45;0.98;;;;;;;;;;4982502;28;20034;-63
2022/11/17 00:41:22;;;;;;;5.72;0.98;;;;;;;;;;4974901;28;20134;-63
2022/11/17 00:43:48;;;;;;;6.40;0.82;;;;;;;;;;4986332;28;20042;-62
2022/11/17 00:46:14;;;;;;;6.13;1.23;;;;;;;;;;4976272;28;20038;-62
2022/11/17 00:48:40;;;;;;;6.40;1.20;;;;;;;;;;4982265;28;20094;-62
2022/11/17 00:51:07;;;;;;;7.57;0.95;;;;;;;;;;4983663;28;20035;-62
2022/11/17 00:53:33;;;;;;;11.18;1.60;;;;;;;;;;4973553;28;20396;-62
2022/11/17 00:55:59;;;;;;;6.93;1.15;;;;;;;;;;4986216;28;20034;-63
2022/11/17 00:58:25;;;;;;;14.93;1.98;;;;;;;;;;4977696;28;20443;-63
2022/11/17 01:00:51;;;;;;;7.68;1.20;;;;;;;;;;4978886;28;20481;-62
2022/11/17 01:03:17;;;;;;;8.88;1.40;;;;;;;;;;4984284;28;20103;-63
2022/11/17 01:05:43;;;;;;;6.32;1.58;;;;;;;;;;4973386;28;20087;-63
2022/11/17 01:08:09;;;;;;;11.15;1.75;;;;;;;;;;4984986;28;20034;-62
2022/11/17 01:10:35;;;;;;;7.03;1.70;;;;;;;;;;4978651;28;20043;-63
2022/11/17 01:13:02;;;;;;;15.85;1.95;;;;;;;;;;4977856;28;20034;-63
2022/11/17 01:15:28;;;;;;;18.55;2.30;;;;;;;;;;4985511;28;20117;-63
2022/11/17 01:17:54;;;;;;;8.60;2.15;;;;;;;;;;4973082;28;20034;-62
2022/11/17 01:20:21;;;;;;;7.35;1.25;;;;;;;;;;4985665;28;20035;-62
2022/11/17 01:22:47;;;;;;;11.70;1.48;;;;;;;;;;4983225;28;20515;-63
2022/11/17 01:25:13;;;;;;;13.07;1.83;;;;;;;;;;4979718;28;20038;-63
2022/11/17 01:27:39;;;;;;;11.63;1.60;;;;;;;;;;4989359;28;20038;-63
2022/11/17 01:30:06;;;;;;;9.00;1.52;;;;;;;;;;4977269;28;20030;-62
2022/11/17 01:32:32;;;;;;;9.57;1.60;;;;;;;;;;4985371;28;20125;-62
2022/11/17 01:34:58;;;;;;;13.15;2.28;;;;;;;;;;4988629;28;20514;-63
2022/11/17 01:37:24;;;;;;;9.05;1.20;;;;;;;;;;4978280;28;20069;-63
2022/11/17 01:39:50;;;;;;;11.75;1.40;;;;;;;;;;4989125;28;20038;-62
2022/11/17 01:42:18;;;;;;;8.18;1.20;;;;;;;;;;4978808;28;20038;-63
2022/11/17 01:44:50;;;;;;;8.90;1.40;;;;;;;;;;4992428;28;20133;-63
2022/11/17 01:47:25;;;;;;;4.47;1.20;;;;;;;;;;4979359;28;20035;-63
2022/11/17 01:49:52;;;;;;;9.95;1.42;;;;;;;;;;4988988;28;20027;-63
2022/11/17 01:52:18;;;;;;;6.03;1.33;;;;;;;;;;4978728;28;20026;-62
2022/11/17 01:54:46;;;;;;;3.88;1.52;;;;;;;;;;4983528;28;20085;-63
2022/11/17 01:57:14;;;;;;;6.13;1.15;;;;;;;;;;4985464;28;20038;-62
2022/11/17 01:59:42;;;;;;;11.60;1.60;;;;;;;;;;4990415;28;20369;-63
2022/11/17 02:02:09;;;;;;;7.32;1.38;;;;;;;;;;4988600;28;20110;-62
2022/11/17 02:04:40;;;;;;;8.32;1.33;;;;;;;;;;4980337;28;20074;-62
2022/11/17 02:07:13;;;;;;;8.50;1.08;;;;;;;;;;4980816;28;20038;-62
2022/11/17 02:09:40;;;;;;;19.38;3.03;;;;;;;;;;4987995;28;20130;-63
2022/11/17 02:12:11;;;;;;;7.47;1.00;;;;;;;;;;4982058;28;20387;-63
2022/11/17 02:14:38;;;;;;;7.90;1.77;;;;;;;;;;4984242;28;20026;-62
2022/11/17 02:17:05;;;;;;;4.50;1.20;;;;;;;;;;4980760;28;20022;-62
2022/11/17 02:19:34;;;;;;;4.55;1.42;;;;;;;;;;4980571;28;20477;-62
2022/11/17 02:22:19;;;;;;;3.03;1.00;;;;;;;;;;4982694;28;20038;-62
2022/11/17 02:24:45;;;;;;;12.57;1.42;;;;;;;;;;4975814;28;20118;-63
2022/11/17 02:27:37;;;;;;;6.55;1.30;;;;;;;;;;4988093;28;20035;-62
2022/11/17 02:30:04;;;;;;;4.80;1.08;;;;;;;;;;4982917;28;20045;-62
2022/11/17 02:32:50;;;;;;;2.08;0.93;;;;;;;;;;4976824;28;20061;-63
2022/11/17 02:35:19;;;;;;;8.35;2.15;;;;;;;;;;4976958;28;20113;-63
2022/11/17 02:37:45;;;;;;;4.20;0.80;;;;;;;;;;4983832;28;20027;-63
2022/11/17 02:40:30;;;;;;;5.13;0.90;;;;;;;;;;4984360;28;20054;-63
2022/11/17 02:46:01;;;;;;;5.93;1.33;;;;;;;;;;4991539;28;20083;-62
2022/11/17 02:48:32;;;;;;;9.05;1.17;;;;;;;;;;4978117;28;20073;-63
2022/11/17 02:50:58;;;;;;;7.88;1.45;;;;;;;;;;4988005;28;20109;-62
2022/11/17 02:53:25;;;;;;;6.10;1.13;;;;;;;;;;4977152;28;20079;-62
2022/11/17 02:55:52;;;;;;;5.25;0.77;;;;;;;;;;4982630;28;20038;-62
2022/11/17 02:58:18;;;;;;;7.78;0.80;;;;;;;;;;4984664;28;20103;-62
2022/11/17 03:00:55;;;;;;;5.78;0.82;;;;;;;;;;4975823;28;20035;-63
2022/11/17 03:03:36;;;;;;;3.20;0.88;;;;;;;;;;4976713;28;20057;-62
2022/11/17 03:06:05;;;;;;;5.18;1.45;;;;;;;;;;4981236;28;20096;-62
2022/11/17 03:08:50;;;;;;;8.65;1.00;;;;;;;;;;4986349;28;20034;-62
2022/11/17 03:11:21;;;;;;;8.30;0.80;;;;;;;;;;4975585;28;20117;-62
2022/11/17 03:14:00;;;;;;;7.93;1.00;;;;;;;;;;4983508;28;20031;-63
2022/11/17 03:16:51;;;;;;;6.07;1.27;;;;;;;;;;4985120;28;20030;-62
2022/11/17 03:19:25;;;;;;;5.53;1.05;;;;;;;;;;4975644;28;20041;-63
2022/11/17 03:22:07;;;;;;;6.38;1.10;;;;;;;;;;4982704;28;20045;-62
2022/11/17 03:24:36;;;;;;;8.40;1.40;;;;;;;;;;4985392;28;20121;-63
2022/11/17 03:27:07;;;;;;;6.13;1.10;;;;;;;;;;4974447;28;20023;-63
2022/11/17 03:29:34;;;;;;;4.22;0.93;;;;;;;;;;4985515;28;20368;-62
2022/11/17 03:32:01;;;;;;;9.57;1.00;;;;;;;;;;4980633;28;20086;-63
2022/11/17 03:34:29;;;;;;;4.93;0.82;;;;;;;;;;4978118;28;20031;-62
2022/11/17 03:36:58;;;;;;;5.63;1.00;;;;;;;;;;4987419;28;20049;-63
2022/11/17 03:39:30;;;;;;;7.38;1.10;;;;;;;;;;4975592;28;20049;-63
2022/11/17 03:41:58;;;;;;;5.47;0.90;;;;;;;;;;4982000;28;20523;-63
2022/11/17 03:44:26;;;;;;;5.28;0.95;;;;;;;;;;4983680;28;20034;-62
2022/11/17 03:46:54;;;;;;;3.30;0.80;;;;;;;;;;4974507;28;20053;-62
2022/11/17 03:49:38;;;;;;;2.08;0.60;;;;;;;;;;4974906;28;20030;-62
2022/11/17 03:52:05;;;;;;;5.70;1.00;;;;;;;;;;4981208;28;20036;-63
2022/11/17 03:54:32;;;;;;;7.60;1.20;;;;;;;;;;4984303;28;20022;-62
2022/11/17 03:57:04;;;;;;;7.78;0.95;;;;;;;;;;4974292;28;20480;-63
2022/11/17 03:59:46;;;;;;;7.78;1.23;;;;;;;;;;4985936;28;20026;-62
2022/11/17 04:02:19;;;;;;;9.25;1.52;;;;;;;;;;4981639;28;20087;-63
2022/11/17 04:07:31;;;;;;;6.05;0.75;;;;;;;;;;4975578;28;20458;-63
2022/11/17 04:09:57;;;;;;;4.85;0.88;;;;;;;;;;4986423;28;20022;-62
2022/11/17 04:17:54;;;;;;;14.25;1.20;;;;;;;;;;4982506;28;20039;-62
2022/11/17 04:20:20;;;;;;;7.45;1.13;;;;;;;;;;4970957;28;20033;-62
2022/11/17 04:23:05;;;;;;;7.07;1.10;;;;;;;;;;4970675;28;20027;-62
2022/11/17 04:28:35;;;;;;;7.30;1.20;;;;;;;;;;4978889;28;20062;-62
2022/11/17 04:31:06;;;;;;;7.47;1.58;;;;;;;;;;4970558;28;20039;-63
2022/11/17 04:33:32;;;;;;;8.55;1.08;;;;;;;;;;4970896;28;20072;-62
2022/11/17 04:35:58;;;;;;;3.53;0.93;;;;;;;;;;4970546;28;20026;-63
2022/11/17 04:38:24;;;;;;;8.77;1.10;;;;;;;;;;4970534;28;20026;-62
2022/11/17 04:43:36;;;;;;;11.15;1.17;;;;;;;;;;4975462;28;20034;-63
2022/11/17 04:46:03;;;;;;;6.70;1.20;;;;;;;;;;4989303;28;20471;-63
2022/11/17 04:48:29;;;;;;;9.88;1.50;;;;;;;;;;4988743;28;20098;-62
2022/11/17 04:50:55;;;;;;;13.43;1.77;;;;;;;;;;4989778;28;20679;-63
2022/11/17 04:53:22;;;;;;;8.13;1.58;;;;;;;;;;4989327;28;20034;-62
2022/11/17 04:55:48;;;;;;;7.53;1.40;;;;;;;;;;4992765;28;20067;-62
2022/11/17 04:58:15;;;;;;;5.78;1.25;;;;;;;;;;4992838;28;20031;-62
2022/11/17 05:00:41;;;;;;;11.93;1.33;;;;;;;;;;4980320;28;20027;-62
2022/11/17 05:03:07;;;;;;;13.13;1.30;;;;;;;;;;4989697;28;20038;-63
2022/11/17 05:05:33;;;;;;;12.90;2.08;;;;;;;;;;4978302;28;20430;-62
2022/11/17 05:07:59;;;;;;;6.50;1.17;;;;;;;;;;4985527;28;20022;-62
2022/11/17 05:13:26;;;;;;;9.00;1.42;;;;;;;;;;4976863;28;20581;-62
2022/11/17 05:18:42;;;;;;;7.82;1.20;;;;;;;;;;4987066;28;20027;-63
2022/11/17 05:21:09;;;;;;;8.23;1.67;;;;;;;;;;4976472;28;20027;-63
2022/11/17 05:23:54;;;;;;;12.75;1.63;;;;;;;;;;4989084;28;20082;-63
2022/11/17 05:26:21;;;;;;;11.52;1.52;;;;;;;;;;4983609;28;20467;-62
2022/11/17 05:28:47;;;;;;;8.75;2.05;;;;;;;;;;4979395;28;20026;-63
2022/11/17 05:31:14;;;;;;;15.50;1.98;;;;;;;;;;4989309;28;20049;-63
2022/11/17 05:33:40;;;;;;;11.43;2.10;;;;;;;;;;4978342;28;20030;-62
2022/11/17 05:36:06;;;;;;;11.77;1.77;;;;;;;;;;4984361;28;20031;-62
2022/11/17 05:38:33;;;;;;;13.48;1.90;;;;;;;;;;4985161;28;20030;-62
2022/11/17 05:40:59;;;;;;;11.65;1.95;;;;;;;;;;4977882;28;20080;-63
2022/11/17 05:43:25;;;;;;;10.38;1.85;;;;;;;;;;4991466;28;20579;-62
2022/11/17 05:45:51;;;;;;;15.98;2.00;;;;;;;;;;4980656;28;20049;-62
2022/11/17 05:48:17;;;;;;;10.75;2.25;;;;;;;;;;4990263;28;20030;-62
2022/11/17 05:50:44;;;;;;;18.52;1.92;;;;;;;;;;4975489;28;20019;-63
2022/11/17 05:53:10;;;;;;;12.43;2.15;;;;;;;;;;4980868;28;20425;-62
2022/11/17 05:55:36;;;;;;;13.60;1.77;;;;;;;;;;4985059;28;20061;-63
2022/11/17 05:58:08;;;;;;;18.20;3.30;;;;;;;;;;4982078;28;20023;-63
2022/11/17 06:00:35;;;;;;;;;;;;;;;;;;4981658;28;20026;-62
2022/11/17 06:03:03;;;;;;;14.30;2.03;;;;;;;;;;4982576;28;19910;-63
2022/11/17 06:05:29;;;;;;;14.85;3.70;;;;;;;;;;4985813;28;20806;-63
2022/11/17 06:07:58;;;;;;;10.20;2.08;;;;;;;;;;4980229;28;20081;-63
2022/11/17 06:10:25;;;;;;;10.23;2.00;;;;;;;;;;4974849;28;20066;-63
2022/11/17 06:12:51;;;;;;;12.10;2.15;;;;;;;;;;4986047;28;20077;-63
2022/11/17 06:15:18;;;;;;;13.25;2.67;;;;;;;;;;4986219;28;20037;-63
2022/11/17 06:17:48;;;;;;;16.45;1.92;;;;;;;;;;4983776;28;20022;-63
2022/11/17 06:20:18;;;;;;;17.88;2.20;;;;;;;;;;4983954;28;20034;-63
2022/11/17 06:22:44;;;;;;;12.93;2.30;;;;;;;;;;4980958;28;20045;-62
2022/11/17 06:25:10;;;;;;;12.60;2.75;;;;;;;;;;4983286;28;20034;-62
2022/11/17 06:27:38;;;;;;;13.55;2.33;;;;;;;;;;4981741;28;20022;-62
2022/11/17 06:30:05;;;;;;;11.48;1.88;;;;;;;;;;4985561;28;20379;-62
2022/11/17 06:32:32;;;;;;;16.50;2.17;;;;;;;;;;4986342;28;20034;-62
2022/11/17 06:34:59;;;;;;;30.02;4.68;;;;;;;;;;4986668;28;20042;-62
2022/11/17 06:37:25;;;;;;;18.48;2.30;;;;;;;;;;4985637;28;20039;-62
2022/11/17 06:39:51;;;;;;;11.73;2.08;;;;;;;;;;4979635;28;20031;-62
2022/11/17 06:42:17;;;;;;;13.82;2.50;;;;;;;;;;4980832;28;20037;-67
2022/11/17 06:44:43;;;;;;;16.77;2.55;;;;;;;;;;4988659;28;20050;-61
2022/11/17 06:47:09;;;;;;;22.27;4.00;;;;;;;;;;4982876;28;20142;-61
2022/11/17 06:49:35;;;;;;;18.67;2.47;;;;;;;;;;4988079;28;20425;-62
2022/11/17 06:52:01;;;;;;;9.23;1.98;;;;;;;;;;4982180;28;20023;-62
2022/11/17 06:54:28;;;;;;;18.42;1.70;;;;;;;;;;4989792;28;20030;-61
2022/11/17 06:56:54;;;;;;;9.88;2.35;;;;;;;;;;4974651;28;20460;-61
2022/11/17 06:59:20;;;;;;;14.98;2.00;;;;;;;;;;4984891;28;20439;-61
2022/11/17 07:01:46;;;;;;;16.73;2.42;;;;;;;;;;4982467;28;20023;-61
2022/11/17 07:04:12;;;;;;;13.05;1.73;;;;;;;;;;4981270;28;20524;-61
2022/11/17 07:06:38;;;;;;;12.93;2.00;;;;;;;;;;4980876;28;20129;-62
2022/11/17 07:09:04;;;;;;;12.48;2.08;;;;;;;;;;4981941;28;20498;-62
2022/11/17 07:11:33;;;;;;;9.57;2.05;;;;;;;;;;4983982;28;20027;-62
2022/11/17 07:14:00;;;;;;;11.32;1.88;;;;;;;;;;4982185;28;20113;-62
2022/11/17 07:16:26;;;;;;;15.57;4.13;;;;;;;;;;4984092;28;20034;-61
2022/11/17 07:18:52;;;;;;;10.95;2.80;;;;;;;;;;4982120;28;20027;-61
2022/11/17 07:21:18;;;;;;;12.95;2.25;;;;;;;;;;4983011;28;20501;-62
2022/11/17 07:23:45;;;;;;;18.23;2.75;;;;;;;;;;4978683;28;20515;-61
2022/11/17 07:26:11;;;;;;;24.17;3.08;;;;;;;;;;4985625;28;20031;-62
2022/11/17 07:28:37;;;;;;;10.23;2.00;;;;;;;;;;4983143;28;20030;-62
2022/11/17 07:31:04;;;;;;;8.90;2.80;;;;;;;;;;4979616;28;20388;-61
2022/11/17 07:33:31;;;;;;;14.77;2.30;;;;;;;;;;4989183;28;20030;-62
2022/11/17 07:36:01;;;;;;;17.55;2.80;;;;;;;;;;4979191;28;20030;-61
2022/11/17 07:38:29;;;;;;;15.60;3.17;;;;;;;;;;4981639;28;20030;-62
2022/11/17 07:40:58;;;;;;;13.32;3.13;;;;;;;;;;4982007;28;20027;-61
2022/11/17 07:43:24;;;;;;;14.02;2.80;;;;;;;;;;4981501;28;20038;-62
2022/11/17 07:45:50;;;;;;;17.50;3.20;;;;;;;;;;4981792;28;20034;-62
2022/11/17 07:48:16;;;;;;;18.30;3.60;;;;;;;;;;4983767;28;20038;-62
2022/11/17 07:50:42;;;;;;;18.30;3.50;;;;;;;;;;4977187;28;20022;-62
2022/11/17 07:53:08;;;;;;;21.40;3.42;;;;;;;;;;4976336;28;20030;-62
2022/11/17 07:55:34;;;;;;;12.73;2.67;;;;;;;;;;4979541;28;20026;-62
2022/11/17 07:58:01;;;;;;;14.60;2.63;;;;;;;;;;4979600;28;20096;-62
2022/11/17 08:00:28;;;;;;;11.50;1.63;;;;;;;;;;4982894;28;20076;-61
2022/11/17 08:02:55;;;;;;;14.02;2.65;;;;;;;;;;4979894;28;20038;-61
2022/11/17 08:05:21;;;;;;;9.63;1.65;;;;;;;;;;4989303;28;20042;-61
2022/11/17 08:07:54;;;;;;;12.32;1.90;;;;;;;;;;4982700;28;20022;-62
2022/11/17 08:10:20;;;;;;;11.57;2.05;;;;;;;;;;4978216;28;20022;-62
2022/11/17 08:12:49;;;;;;;13.82;2.47;;;;;;;;;;4979328;28;20042;-62
2022/11/17 08:15:16;;;;;;;16.48;1.80;;;;;;;;;;4976906;28;20073;-61
2022/11/17 08:17:42;;;;;;;12.57;3.58;;;;;;;;;;4986909;28;20511;-63
2022/11/17 08:20:08;;;;;;;14.80;2.65;;;;;;;;;;4991199;28;20057;-62
2022/11/17 08:22:34;;;;;;;15.88;3.47;;;;;;;;;;4982839;28;20391;-61
2022/11/17 08:25:00;;;;;;;22.05;4.28;;;;;;;;;;4979182;28;20042;-61
2022/11/17 08:27:26;;;;;;;14.90;4.15;;;;;;;;;;4983275;28;20023;-62
2022/11/17 08:29:52;;;;;;;18.50;6.82;;;;;;;;;;4981824;28;20026;-61
2022/11/17 08:32:18;;;;;;;16.83;5.50;;;;;;;;;;4981453;28;20412;-61
2022/11/17 08:34:44;;;;;;;19.42;8.10;;;;;;;;;;4980956;28;20031;-61
2022/11/17 08:37:10;;;;;;;10.65;2.80;;;;;;;;;;4977785;28;20031;-61
2022/11/17 08:39:37;;;;;;;17.52;4.20;;;;;;;;;;4985121;28;20494;-61
2022/11/17 08:42:03;;;;;;;14.25;4.18;;;;;;;;;;4980739;28;20111;-61
2022/11/17 08:44:30;;;;;;;19.15;3.00;;;;;;;;;;4981190;28;20109;-62
2022/11/17 08:46:56;;;;;;;13.05;2.40;;;;;;;;;;4976467;28;20031;-62
2022/11/17 08:49:22;;;;;;;7.05;2.30;;;;;;;;;;4977547;28;20058;-62
2022/11/17 08:51:48;;;;;;;20.48;2.95;;;;;;;;;;4978735;28;20033;-61
2022/11/17 08:54:14;;;;;;;8.00;2.67;;;;;;;;;;4983922;28;20122;-61
2022/11/17 08:56:40;;;;;;;12.95;2.15;;;;;;;;;;4977074;28;20027;-62
2022/11/17 08:59:08;;;;;;;14.00;2.55;;;;;;;;;;4978403;28;20493;-62
2022/11/17 09:01:34;;;;;;;17.52;2.33;;;;;;;;;;4981906;28;20403;-62
2022/11/17 09:04:00;;;;;;;9.13;1.90;;;;;;;;;;4981600;28;20050;-62
2022/11/17 09:06:26;;;;;;;12.77;2.00;;;;;;;;;;4981000;28;20034;-62
2022/11/17 09:08:53;;;;;;;9.40;1.83;;;;;;;;;;4983880;28;20031;-62
2022/11/17 09:11:20;;;;;;;4.72;1.40;;;;;;;;;;4980272;28;20046;-62
2022/11/17 09:13:46;;;;;;;9.15;1.65;;;;;;;;;;4980630;28;20791;-61
2022/11/17 09:16:13;;;;;;;8.38;1.70;;;;;;;;;;4982255;28;20633;-61
2022/11/17 09:18:39;;;;;;;7.15;1.45;;;;;;;;;;4979182;28;20058;-62
2022/11/17 09:21:12;;;;;;;10.38;1.55;;;;;;;;;;4983585;28;20027;-62
2022/11/17 09:23:38;;;;;;;8.07;1.40;;;;;;;;;;4979090;28;20022;-62
2022/11/17 09:26:06;;;;;;;12.60;2.03;;;;;;;;;;4976743;28;20050;-62
2022/11/17 09:28:32;;;;;;;12.35;1.70;;;;;;;;;;4978929;28;20030;-61
2022/11/17 09:30:59;;;;;;;8.50;2.13;;;;;;;;;;4979339;28;20054;-61
2022/11/17 09:33:25;;;;;;;12.38;1.90;;;;;;;;;;4978483;28;20027;-62
2022/11/17 09:35:51;;;;;;;9.77;1.70;;;;;;;;;;4980263;28;20046;-62
2022/11/17 09:38:17;;;;;;;7.88;1.85;;;;;;;;;;4977349;28;20062;-61
2022/11/17 09:40:44;;;;;;;12.68;2.08;;;;;;;;;;4988405;28;20480;-62
2022/11/17 09:43:40;;;;;;;7.40;1.60;;;;;;;;;;4978804;28;20031;-61
2022/11/17 09:46:12;;;;;;;12.98;1.75;;;;;;;;;;4996416;28;20129;-62
2022/11/17 09:48:40;;;;;;;7.93;1.80;;;;;;;;;;4982423;28;20026;-62
2022/11/17 09:51:09;;;;;;;10.98;2.60;;;;;;;;;;4982712;28;20034;-62
2022/11/17 09:53:38;;;;;;;5.97;1.30;;;;;;;;;;4980341;28;20031;-62
2022/11/17 09:56:06;;;;;;;6.70;1.60;;;;;;;;;;4978904;28;20092;-61
2022/11/17 09:58:33;;;;;;;11.35;2.05;;;;;;;;;;4981228;28;20042;-62
2022/11/17 10:00:59;;;;;;;6.72;1.35;;;;;;;;;;4984149;28;20030;-62
2022/11/17 10:03:34;;;;;;;6.65;1.90;;;;;;;;;;4986687;28;20453;-61
2022/11/17 10:06:04;;;;;;;8.63;1.40;;;;;;;;;;4979965;28;20465;-61
2022/11/17 10:08:49;;;;;;;16.02;2.53;;;;;;;;;;4984184;28;20045;-62
2022/11/17 10:11:31;;;;;;;8.80;1.70;;;;;;;;;;4979949;28;20455;-62
2022/11/17 10:14:02;;;;;;;12.25;1.75;;;;;;;;;;4980550;28;20059;-61
2022/11/17 10:16:28;;;;;;;5.82;1.60;;;;;;;;;;4979053;28;20023;-61
2022/11/17 10:18:54;;;;;;;8.98;1.40;;;;;;;;;;4986006;28;20046;-61
2022/11/17 10:21:20;;;;;;;10.02;2.33;;;;;;;;;;4985928;28;20088;-62
2022/11/17 10:23:53;;;;;;;12.38;2.03;;;;;;;;;;4982005;28;20015;-62
2022/11/17 10:26:19;;;;;;;5.03;1.38;;;;;;;;;;4979398;28;20023;-61
2022/11/17 10:28:47;;;;;;;7.85;2.00;;;;;;;;;;4984592;28;20109;-61
2022/11/17 10:31:14;;;;;;;11.95;2.35;;;;;;;;;;4975703;28;20035;-62
2022/11/17 10:33:50;;;;;;;12.52;1.40;;;;;;;;;;4988726;28;20026;-61
2022/11/17 10:36:16;;;;;;;9.70;1.77;;;;;;;;;;4981671;28;20041;-61
2022/11/17 10:38:47;;;;;;;8.80;1.85;;;;;;;;;;4987832;28;20027;-62
2022/11/17 10:41:23;;;;;;;11.73;2.03;;;;;;;;;;4979137;28;20409;-61
2022/11/17 10:44:03;;;;;;;7.68;1.73;;;;;;;;;;4979589;28;20031;-61
2022/11/17 10:46:30;;;;;;;9.95;1.63;;;;;;;;;;4982198;28;20100;-61
2022/11/17 10:48:59;;;;;;;7.10;1.90;;;;;;;;;;4979534;28;20068;-61
2022/11/17 10:51:31;;;;;;;6.18;1.40;;;;;;;;;;4983408;28;20042;-62
2022/11/17 10:54:00;;;;;;;8.13;1.50;;;;;;;;;;4980141;28;20027;-61
2022/11/17 10:56:26;;;;;;;7.80;1.52;;;;;;;;;;4982408;28;20519;-62
2022/11/17 10:58:52;;;;;;;9.45;1.75;;;;;;;;;;4982975;28;20041;-61
2022/11/17 11:01:26;;;;;;;12.32;1.85;;;;;;;;;;4977766;28;20030;-62
2022/11/17 11:03:52;;;;;;;8.95;2.00;;;;;;;;;;4987268;28;20039;-62
2022/11/17 11:06:25;;;;;;;16.42;2.33;;;;;;;;;;4981298;28;20402;-62
2022/11/17 11:09:00;;;;;;;10.40;1.60;;;;;;;;;;4988873;28;20030;-62
2022/11/17 11:11:46;;;;;;;10.07;1.67;;;;;;;;;;4977797;28;20041;-61
2022/11/17 11:14:17;;;;;;;11.57;2.58;;;;;;;;;;4982430;28;20448;-61
2022/11/17 11:16:47;;;;;;;9.93;2.10;;;;;;;;;;4983022;28;20074;-61
2022/11/17 11:19:15;;;;;;;8.38;1.60;;;;;;;;;;4975811;28;20543;-64
2022/11/17 11:21:41;;;;;;;8.40;1.80;;;;;;;;;;4982791;28;20106;-61
2022/11/17 11:24:07;;;;;;;10.48;1.95;;;;;;;;;;4985205;28;20030;-61
2022/11/17 11:26:36;;;;;;;11.65;2.05;;;;;;;;;;4981512;28;20070;-61
2022/11/17 11:29:11;;;;;;;14.80;1.63;;;;;;;;;;4985498;28;20030;-61
2022/11/17 11:31:40;;;;;;;7.38;1.35;;;;;;;;;;4984653;28;20066;-61
2022/11/17 11:34:14;;;;;;;4.50;1.33;;;;;;;;;;4986750;28;20042;-61
2022/11/17 11:36:59;;;;;;;4.97;1.25;;;;;;;;;;4979259;28;20022;-61
2022/11/17 11:39:43;;;;;;;11.30;2.00;;;;;;;;;;4977994;28;20121;-62
2022/11/17 11:42:28;;;;;;;7.47;1.52;;;;;;;;;;4975946;28;20035;-62
2022/11/17 11:44:57;;;;;;;10.77;1.30;;;;;;;;;;4984322;28;20080;-62
2022/11/17 11:47:23;;;;;;;2.67;0.77;;;;;;;;;;4980004;28;20049;-62
2022/11/17 11:49:55;;;;;;;1.90;0.55;;;;;;;;;;4982364;28;20079;-62
2022/11/17 11:52:24;;;;;;;3.60;1.20;;;;;;;;;;4979940;28;20019;-62
2022/11/17 11:54:53;;;;;;;3.38;1.00;;;;;;;;;;4981976;28;20097;-61
2022/11/17 11:57:21;;;;;;;4.72;1.33;;;;;;;;;;4981539;28;20454;-61
2022/11/17 11:59:54;;;;;;;6.47;1.13;;;;;;;;;;4979372;28;20023;-61
2022/11/17 12:02:27;;;;;;;5.60;1.58;;;;;;;;;;4981262;28;20030;-61
2022/11/17 12:05:00;;;;;;;7.70;1.27;;;;;;;;;;4980545;28;20401;-61
2022/11/17 12:07:34;;;;;;;9.07;1.33;;;;;;;;;;4975735;28;20401;-61
2022/11/17 12:10:12;;;;;;;8.77;2.03;;;;;;;;;;4982368;28;20026;-61
2022/11/17 12:12:39;;;;;;;10.10;1.65;;;;;;;;;;4983029;28;20026;-62
2022/11/17 12:15:07;;;;;;;9.18;2.15;;;;;;;;;;4982582;28;20025;-61
2022/11/17 12:17:33;;;;;;;6.15;2.30;;;;;;;;;;4980964;28;20054;-61
2022/11/17 12:20:01;;;;;;;7.90;1.80;;;;;;;;;;4981810;28;20038;-61
2022/11/17 12:22:31;;;;;;;12.55;2.38;;;;;;;;;;4982932;28;20030;-61
2022/11/17 12:24:58;;;;;;;7.68;1.50;;;;;;;;;;4980385;28;20058;-61
2022/11/17 12:27:30;;;;;;;8.85;1.63;;;;;;;;;;4980821;28;20026;-61
2022/11/17 12:29:56;;;;;;;12.93;2.50;;;;;;;;;;4974913;28;20073;-61
2022/11/17 12:32:41;;;;;;;9.00;1.50;;;;;;;;;;4980966;28;20030;-61
2022/11/17 12:35:22;;;;;;;4.90;1.35;;;;;;;;;;4980803;28;20030;-61
2022/11/17 12:37:48;;;;;;;13.93;1.85;;;;;;;;;;4982661;28;20030;-61
2022/11/17 12:40:33;;;;;;;13.70;1.92;;;;;;;;;;4983260;28;20084;-62
2022/11/17 12:43:14;;;;;;;6.53;1.50;;;;;;;;;;4984433;28;20041;-61
2022/11/17 12:46:04;;;;;;;6.38;1.40;;;;;;;;;;4982988;28;20041;-61
2022/11/17 12:48:32;;;;;;;6.57;1.58;;;;;;;;;;4986828;28;20046;-62
2022/11/17 12:51:17;;;;;;;10.13;2.58;;;;;;;;;;4981652;28;20168;-61
2022/11/17 12:53:43;;;;;;;12.20;1.55;;;;;;;;;;4981451;28;20133;-61
2022/11/17 12:56:18;;;;;;;5.28;1.58;;;;;;;;;;4982675;28;20055;-61
2022/11/17 12:58:47;;;;;;;9.07;1.50;;;;;;;;;;4979009;28;20035;-62
2022/11/17 13:01:16;;;;;;;9.50;1.48;;;;;;;;;;4979170;28;20053;-62
2022/11/17 13:03:42;;;;;;;4.63;1.25;;;;;;;;;;4978029;28;20054;-61
2022/11/17 13:06:14;;;;;;;6.20;2.28;;;;;;;;;;4974203;28;20039;-62
2022/11/17 13:08:40;;;;;;;6.40;1.60;;;;;;;;;;4980400;28;20122;-61
2022/11/17 13:11:13;;;;;;;8.15;1.35;;;;;;;;;;4981034;28;20027;-61
2022/11/17 13:13:40;;;;;;;4.15;1.40;;;;;;;;;;4998875;28;20050;-61
2022/11/17 13:16:17;;;;;;;5.13;1.48;;;;;;;;;;4979827;28;20026;-61
2022/11/17 13:18:43;;;;;;;9.90;1.83;;;;;;;;;;4990414;28;20045;-61
2022/11/17 13:21:24;;;;;;;10.23;1.80;;;;;;;;;;4985117;28;20039;-62
2022/11/17 13:23:51;;;;;;;10.18;1.85;;;;;;;;;;4983030;28;20523;-61
2022/11/17 13:26:22;;;;;;;5.43;1.73;;;;;;;;;;5047286;28;20037;-61
2022/11/17 13:29:01;;;;;;;8.82;1.42;;;;;;;;;;4993286;28;20042;-61
2022/11/17 13:31:27;;;;;;;10.00;1.60;;;;;;;;;;5003762;28;20023;-61
2022/11/17 13:34:07;;;;;;;9.23;1.58;;;;;;;;;;5030886;28;20033;-61
2022/11/17 13:36:33;;;;;;;9.55;1.20;;;;;;;;;;4981964;28;20436;-61
2022/11/17 13:39:00;;;;;;;14.20;1.80;;;;;;;;;;5006924;28;20015;-61
2022/11/17 13:41:27;;;;;;;8.57;1.55;;;;;;;;;;4985704;28;20065;-61
2022/11/17 13:43:54;;;;;;;17.13;3.20;;;;;;;;;;4981439;28;20085;-61
2022/11/17 13:46:20;;;;;;;10.35;1.40;;;;;;;;;;4986565;28;20496;-61
2022/11/17 13:48:48;;;;;;;9.30;1.60;;;;;;;;;;4980964;28;20053;-62
2022/11/17 13:51:38;;;;;;;5.22;1.38;;;;;;;;;;4986101;28;20044;-61
2022/11/17 13:54:10;;;;;;;11.82;2.25;;;;;;;;;;4982192;28;20083;-61
2022/11/17 13:56:36;;;;;;;5.22;1.60;;;;;;;;;;4986449;28;20027;-61
2022/11/17 13:59:26;;;;;;;5.15;1.40;;;;;;;;;;4990910;28;20105;-61
2022/11/17 14:02:10;;;;;;;7.80;1.70;;;;;;;;;;4982725;28;20504;-61
2022/11/17 14:04:36;;;;;;;13.77;2.47;;;;;;;;;;4973193;28;20062;-61
2022/11/17 14:07:03;;;;;;;5.95;1.50;;;;;;;;;;4977350;28;20026;-61
2022/11/17 14:09:30;;;;;;;9.27;1.23;;;;;;;;;;4992753;28;20480;-61
2022/11/17 14:11:57;;;;;;;10.70;1.75;;;;;;;;;;4975839;28;20353;-61
2022/11/17 14:14:41;;;;;;;8.70;1.63;;;;;;;;;;4973597;28;20052;-61
2022/11/17 14:17:18;;;;;;;8.38;1.48;;;;;;;;;;4972985;28;20042;-61
2022/11/17 14:19:44;;;;;;;12.10;1.73;;;;;;;;;;4973329;28;20035;-60
2022/11/17 14:22:10;;;;;;;9.48;1.98;;;;;;;;;;4974817;28;20039;-61
2022/11/17 14:24:37;;;;;;;6.68;1.50;;;;;;;;;;4992589;28;20030;-61
2022/11/17 14:27:11;;;;;;;10.07;1.80;;;;;;;;;;4992319;28;20493;-61
2022/11/17 14:29:37;;;;;;;6.55;2.13;;;;;;;;;;4992497;28;20039;-61
2022/11/17 14:32:03;;;;;;;12.52;1.80;;;;;;;;;;4983230;28;20057;-61
2022/11/17 14:34:29;;;;;;;8.82;1.52;;;;;;;;;;4972906;28;20031;-61
2022/11/17 14:36:56;;;;;;;14.43;1.90;;;;;;;;;;4973128;28;20023;-61
2022/11/17 14:39:22;;;;;;;6.60;1.88;;;;;;;;;;4972997;28;20031;-61
2022/11/17 14:41:49;;;;;;;10.85;1.60;;;;;;;;;;4974187;28;20031;-61
2022/11/17 14:44:15;;;;;;;9.63;1.50;;;;;;;;;;4977030;28;20121;-61
2022/11/17 14:46:41;;;;;;;11.63;2.08;;;;;;;;;;4989003;28;20475;-61
2022/11/17 14:49:07;;;;;;;9.27;2.15;;;;;;;;;;4976768;28;20094;-62
2022/11/17 14:51:34;;;;;;;5.95;1.58;;;;;;;;;;4978859;28;20027;-62
2022/11/17 14:54:00;;;;;;;7.45;1.52;;;;;;;;;;4972963;28;20076;-61
2022/11/17 14:56:27;;;;;;;7.25;1.50;;;;;;;;;;4986108;28;20502;-61
2022/11/17 14:58:54;;;;;;;9.48;1.63;;;;;;;;;;4981843;28;20062;-61
2022/11/17 15:01:24;;;;;;;12.52;1.83;;;;;;;;;;4982832;28;20023;-61
2022/11/17 15:03:51;;;;;;;11.00;2.05;;;;;;;;;;4976843;28;20035;-61
2022/11/17 15:06:18;;;;;;;10.15;1.45;;;;;;;;;;4983885;28;20034;-61
2022/11/17 15:08:44;;;;;;;7.68;1.55;;;;;;;;;;4977470;28;20041;-61
2022/11/17 15:11:14;;;;;;;7.53;1.15;;;;;;;;;;4981914;28;20038;-61
2022/11/17 15:13:40;;;;;;;10.30;1.52;;;;;;;;;;4979840;28;20733;-63
2022/11/17 15:16:06;;;;;;;11.38;2.30;;;;;;;;;;4980524;28;20054;-63
2022/11/17 15:18:32;;;;;;;8.60;1.40;;;;;;;;;;4974946;28;20026;-61
2022/11/17 15:20:59;;;;;;;16.05;3.30;;;;;;;;;;4980115;28;20404;-63